createdAt,value
2022-10-20T00:55:30.466Z,84.24
2022-10-20T01:05:36.404Z,83.97
2022-10-20T01:15:47.691Z,84.24
2022-10-20T01:26:07.913Z,84.60
2022-10-20T01:36:21.787Z,84.49
2022-10-20T01:46:29.013Z,84.53
2022-10-20T02:08:08.091Z,85.05
2022-10-20T02:18:19.139Z,84.98
2022-10-20T02:39:47.599Z,85.05
2022-10-20T03:01:15.517Z,85.42
2022-10-20T03:11:21.181Z,85.61
2022-10-20T03:21:26.813Z,85.57
2022-10-20T03:31:32.526Z,85.75
2022-10-20T03:41:38.155Z,85.64
2022-10-20T03:51:43.785Z,85.68
2022-10-20T04:01:50.219Z,86.14
2022-10-20T04:11:55.903Z,86.00
2022-10-20T04:22:01.487Z,86.20
2022-10-20T04:32:07.543Z,86.36
2022-10-20T04:42:13.208Z,86.56
2022-10-20T04:52:20.881Z,86.99
2022-10-20T05:02:26.580Z,87.41
2022-10-20T05:12:32.138Z,87.56
2022-10-20T05:22:38.091Z,87.53
2022-10-20T05:32:43.862Z,87.27
2022-10-20T05:42:49.463Z,87.26
2022-10-20T05:52:55.434Z,86.76
2022-10-20T06:03:01.333Z,86.99
2022-10-20T06:13:07.000Z,87.45
2022-10-20T06:23:12.630Z,86.49
2022-10-20T06:33:18.187Z,81.08
2022-10-20T06:43:23.849Z,76.17
2022-10-20T06:53:31.091Z,70.82
2022-10-20T07:03:38.430Z,65.82
2022-10-20T07:13:44.558Z,60.81
2022-10-20T07:23:51.508Z,55.78
2022-10-20T07:34:13.181Z,51.38
2022-10-20T07:44:20.360Z,47.48
2022-10-20T07:54:26.003Z,44.37
2022-10-20T08:04:32.017Z,41.73
2022-10-20T08:14:37.970Z,39.03
2022-10-20T08:24:43.585Z,36.70
2022-10-20T08:34:49.226Z,35.07
2022-10-20T08:44:59.411Z,33.19
2022-10-20T08:55:07.836Z,32.12
2022-10-20T09:05:18.224Z,31.83
2022-10-20T09:15:26.672Z,32.66
2022-10-20T09:25:33.178Z,34.96
2022-10-20T09:35:40.701Z,37.31
2022-10-20T09:45:54.291Z,39.39
2022-10-20T09:56:00.352Z,41.15
2022-10-20T10:06:23.345Z,42.02
2022-10-20T10:16:40.623Z,42.85
2022-10-20T10:26:49.038Z,43.66
2022-10-20T10:36:54.843Z,44.72
2022-10-20T10:47:14.599Z,46.07
2022-10-20T10:57:31.501Z,46.78
2022-10-20T11:07:45.090Z,47.13
2022-10-20T11:18:02.002Z,47.49
2022-10-20T11:28:30.477Z,47.66
2022-10-20T11:38:41.469Z,47.08
2022-10-20T11:48:51.860Z,47.34
2022-10-20T11:59:16.229Z,47.62
2022-10-20T12:09:36.329Z,48.53
2022-10-20T12:19:41.976Z,49.03
2022-10-20T12:29:59.277Z,49.74
2022-10-20T12:40:25.723Z,50.32
2022-10-20T12:50:36.855Z,50.40
2022-10-20T13:01:07.047Z,50.75
2022-10-20T13:11:41.971Z,49.93
2022-10-20T13:21:49.785Z,50.16
2022-10-20T13:32:12.955Z,50.72
2022-10-20T13:42:44.010Z,51.21
2022-10-20T13:52:53.853Z,52.09
2022-10-20T14:03:02.271Z,52.53
2022-10-20T14:13:11.405Z,53.00
2022-10-20T14:23:17.323Z,53.24
2022-10-20T14:33:23.436Z,53.67
2022-10-20T14:43:37.236Z,54.21
2022-10-20T14:53:42.848Z,54.63
2022-10-20T15:03:48.609Z,55.19
2022-10-20T15:13:56.221Z,55.35
2022-10-20T15:24:02.259Z,56.00
2022-10-20T15:34:10.229Z,56.78
2022-10-20T15:44:16.374Z,57.80
2022-10-20T15:54:23.811Z,58.88
2022-10-20T16:04:31.450Z,59.52
2022-10-20T16:14:38.128Z,60.43
2022-10-20T16:24:43.820Z,61.32
2022-10-20T16:34:49.443Z,61.71
2022-10-20T16:44:55.082Z,62.54
2022-10-20T16:55:00.784Z,63.34
2022-10-20T17:05:09.347Z,63.76
2022-10-20T17:15:15.430Z,64.23
2022-10-20T17:25:21.049Z,64.85
2022-10-20T17:35:26.758Z,65.01
2022-10-20T17:45:35.017Z,65.50
2022-10-20T17:55:43.283Z,65.94
2022-10-20T18:05:48.876Z,66.71
2022-10-20T18:15:54.658Z,67.34
2022-10-20T18:26:06.226Z,67.74
2022-10-20T18:36:14.251Z,68.01
2022-10-20T18:46:20.164Z,68.21
2022-10-20T18:56:27.364Z,68.44
2022-10-20T19:06:35.065Z,68.84
2022-10-20T19:16:39.897Z,69.58
2022-10-20T19:26:56.785Z,70.15
2022-10-20T19:37:12.727Z,70.69
2022-10-20T19:47:22.586Z,70.73
2022-10-20T19:57:28.526Z,71.44
2022-10-20T20:07:34.513Z,72.07
2022-10-20T20:17:40.681Z,72.55
2022-10-20T20:27:46.368Z,73.11
2022-10-20T20:37:52.065Z,73.44
2022-10-20T20:47:57.741Z,73.83
2022-10-20T20:58:03.670Z,74.37
2022-10-20T21:08:09.462Z,75.07
2022-10-20T21:18:15.011Z,75.60
2022-10-20T21:28:20.560Z,76.12
2022-10-20T21:38:29.238Z,77.00
2022-10-20T21:58:42.164Z,77.76
2022-10-20T22:08:50.512Z,78.00
2022-10-20T22:18:59.043Z,78.42
2022-10-20T22:29:06.625Z,78.58
2022-10-20T22:49:23.476Z,78.91
2022-10-20T22:59:29.088Z,79.21
2022-10-20T23:09:34.774Z,79.22
2022-10-20T23:19:40.386Z,79.18
2022-10-20T23:29:45.969Z,79.17
2022-10-20T23:39:51.818Z,79.15
2022-10-20T23:49:57.645Z,79.13
